Terminal Aerodrome Forecast
Issued by NWS Atlanta, GA

Home | Current Version | Previous Version | Text Only | Print | Product List | Glossary On
Versions: 1 2 3 4 5 6 7 8 9 10 11 12 13 14 15 16 17 18 19 20 21 22 23 24 25
000
FTAK31 PAJN 301735
TAFAHN
TAF
PAHN 301735Z 3018/3118 10007KT P6SM VCSH BKN015 BKN060
     FM302200 12010G16KT P6SM VCSH SCT020 BKN050
     FM310300 10006KT P6SM SCT050 BKN100
     FM311200 32006KT P6SM SCT100
      AMD LTD TO CLD VIS AND WIND=

USA.gov is the U.S. government's official web portal to all federal, state and local government web resources and services.